Time;durP1;ratioP1;P1;durP2;ratioP2;P2;SDS_P1;SDS_P2;PMS_P1;PMS_P2;Temp;Humidity;BMP_temperature;BMP_pressure;BME280_temperature;BME280_humidity;BME280_pressure;Samples;Min_cycle;Max_cycle;Signal;HPM_P1;HPM_P2
2023/05/05 00:02:17;;;;;;;7.63;4.88;;;;;;;10.37;74.00;94278.25;5127059;28;20062;-89
2023/05/05 00:04:42;;;;;;;9.13;5.35;;;;;;;10.37;73.95;94275.59;5126836;28;20026;-89
2023/05/05 00:07:07;;;;;;;7.68;4.70;;;;;;;10.37;74.02;94278.25;5126851;28;20038;-89
2023/05/05 00:09:33;;;;;;;7.28;4.22;;;;;;;10.36;73.79;94274.00;5126607;28;20226;-89
2023/05/05 00:11:58;;;;;;;8.98;4.82;;;;;;;10.28;73.89;94274.69;5126803;28;20043;-89
2023/05/05 00:14:24;;;;;;;8.02;4.55;;;;;;;10.23;73.99;94287.03;5127064;28;20030;-89
2023/05/05 00:16:49;;;;;;;7.65;3.97;;;;;;;10.19;74.05;94275.41;5126420;28;20015;-89
2023/05/05 00:19:18;;;;;;;7.63;4.15;;;;;;;10.09;73.96;94280.94;5109113;28;20019;-88
2023/05/05 00:21:43;;;;;;;7.93;4.32;;;;;;;10.10;74.05;94271.88;5126389;28;20030;-86
2023/05/05 00:24:09;;;;;;;5.85;3.78;;;;;;;10.10;74.24;94274.53;5126390;28;20011;-85
2023/05/05 00:26:35;;;;;;;8.05;3.80;;;;;;;10.14;74.19;94272.84;5126473;28;20240;-85
2023/05/05 00:29:00;;;;;;;6.88;4.32;;;;;;;10.18;74.03;94281.03;5126412;28;20046;-85
2023/05/05 00:31:26;;;;;;;6.90;3.38;;;;;;;10.21;74.47;94278.53;5125185;28;20210;-85
2023/05/05 00:33:51;;;;;;;5.68;3.40;;;;;;;10.23;74.39;94281.69;5125649;28;20026;-85
2023/05/05 00:36:17;;;;;;;11.55;4.13;;;;;;;10.28;74.22;94277.34;5125675;28;20016;-85
2023/05/05 00:38:42;;;;;;;4.95;3.17;;;;;;;10.32;74.18;94275.69;5125544;28;20247;-85
2023/05/05 00:41:08;;;;;;;5.25;3.55;;;;;;;10.33;73.54;94277.28;5125835;28;20015;-85
2023/05/05 00:43:33;;;;;;;5.13;3.58;;;;;;;10.34;73.35;94276.16;5125369;28;20214;-85
2023/05/05 00:46:02;;;;;;;6.72;4.03;;;;;;;10.32;73.06;94278.34;5125421;28;20027;-84
2023/05/05 00:48:29;;;;;;;6.57;4.05;;;;;;;10.31;72.86;94276.78;5125749;28;20035;-85
2023/05/05 00:50:55;;;;;;;9.68;4.90;;;;;;;10.28;72.95;94272.00;5107274;28;20015;-85
2023/05/05 00:53:22;;;;;;;8.48;4.47;;;;;;;10.28;72.61;94272.81;5125651;28;20019;-85
2023/05/05 00:55:47;;;;;;;8.10;4.65;;;;;;;10.27;72.62;94275.78;5107096;28;20011;-85
2023/05/05 00:58:13;;;;;;;7.13;4.20;;;;;;;10.24;72.64;94277.97;5125380;28;20046;-85
2023/05/05 01:00:39;;;;;;;9.70;4.90;;;;;;;10.19;72.79;94280.72;5125184;28;20310;-85
2023/05/05 01:03:07;;;;;;;7.47;4.22;;;;;;;10.18;72.80;94284.50;5125089;28;20027;-85
2023/05/05 01:06:05;;;;;;;11.32;4.13;;;;;;;10.18;72.53;94283.72;5107506;28;20031;-89
2023/05/05 01:09:00;;;;;;;7.18;4.47;;;;;;;10.14;72.61;94278.19;5125241;28;20027;-88
2023/05/05 01:11:51;;;;;;;9.32;4.45;;;;;;;10.08;72.83;94279.38;5125971;28;20221;-89
2023/05/05 01:14:25;;;;;;;5.85;4.20;;;;;;;10.07;72.69;94275.13;5125668;28;20054;-89
2023/05/05 01:16:59;;;;;;;7.32;3.70;;;;;;;10.01;73.07;94273.66;5126186;28;20011;-91
2023/05/05 01:19:45;;;;;;;8.18;4.40;;;;;;;9.99;73.10;94260.66;5108004;28;20020;-91
2023/05/05 01:22:13;;;;;;;14.95;4.85;;;;;;;9.96;73.04;94274.56;5125724;28;20027;-91
2023/05/05 01:25:10;;;;;;;8.13;3.60;;;;;;;9.90;73.31;94265.09;5125966;28;20043;-91
2023/05/05 01:28:01;;;;;;;5.35;3.70;;;;;;;9.86;73.47;94268.66;5108024;28;20050;-90
2023/05/05 01:30:48;;;;;;;7.43;3.88;;;;;;;9.77;73.84;94272.03;5125954;28;20016;-91
2023/05/05 01:33:23;;;;;;;6.90;4.43;;;;;;;9.71;73.92;94261.75;5125460;28;20043;-91
2023/05/05 01:35:56;;;;;;;6.70;3.70;;;;;;;9.63;74.21;94264.06;5125703;28;20027;-91
2023/05/05 01:38:31;;;;;;;6.88;4.13;;;;;;;9.55;74.47;94266.63;5125653;28;20103;-90
2023/05/05 01:41:06;;;;;;;7.53;4.25;;;;;;;9.45;74.94;94272.91;5107619;28;20089;-91
2023/05/05 01:43:53;;;;;;;6.80;3.38;;;;;;;9.36;75.13;94259.53;5106115;28;20020;-90
2023/05/05 01:46:29;;;;;;;7.80;3.90;;;;;;;9.32;75.60;94255.06;5107305;28;20095;-91
2023/05/05 01:48:56;;;;;;;10.32;4.45;;;;;;;9.26;76.04;94254.41;5125781;28;20019;-91
2023/05/05 01:51:23;;;;;;;7.28;4.05;;;;;;;9.26;76.04;94248.28;5107572;28;20050;-92
2023/05/05 01:53:51;;;;;;;7.03;3.70;;;;;;;9.19;76.22;94249.44;5125370;28;20027;-91
2023/05/05 01:56:19;;;;;;;10.65;3.80;;;;;;;9.19;76.32;94248.66;5125262;28;20012;-91
2023/05/05 01:58:46;;;;;;;7.32;3.78;;;;;;;9.23;76.37;94253.09;5125177;28;20023;-92
2023/05/05 02:01:12;;;;;;;5.97;3.90;;;;;;;9.23;75.93;94254.97;5125439;28;20019;-91
2023/05/05 02:03:38;;;;;;;9.07;3.08;;;;;;;9.21;76.11;94246.50;5106865;28;20059;-91
2023/05/05 02:06:06;;;;;;;7.53;3.60;;;;;;;9.21;76.28;94247.28;5125734;28;20023;-91
2023/05/05 02:08:35;;;;;;;6.18;3.33;;;;;;;9.22;76.33;94248.09;5125883;28;20019;-91
2023/05/05 02:11:01;;;;;;;4.63;3.17;;;;;;;9.23;76.67;94249.66;5125237;28;20051;-91
2023/05/05 02:13:29;;;;;;;5.45;3.08;;;;;;;9.26;76.72;94249.06;5124839;28;20305;-91
2023/05/05 02:15:55;;;;;;;10.40;3.55;;;;;;;9.28;76.39;94238.94;5125542;28;20011;-91
2023/05/05 02:18:25;;;;;;;5.53;3.38;;;;;;;9.30;76.61;94244.75;5125455;28;20016;-92
2023/05/05 02:20:52;;;;;;;6.93;3.30;;;;;;;9.29;76.47;94245.03;5125053;28;20029;-93
2023/05/05 02:23:18;;;;;;;5.90;3.30;;;;;;;9.31;76.62;94251.63;5106412;28;20012;-93
2023/05/05 02:25:49;;;;;;;6.00;3.65;;;;;;;9.36;76.53;94254.19;5124647;28;20019;-94
2023/05/05 02:28:32;;;;;;;6.85;3.85;;;;;;;9.38;76.95;94244.06;5125161;28;20337;-93
2023/05/05 02:30:59;;;;;;;;;;;;;;;9.37;76.74;94253.09;5125746;28;20027;-93
2023/05/05 02:33:26;;;;;;;12.55;4.32;;;;;;;9.32;76.94;94249.75;5125018;28;19963;-93
2023/05/05 02:35:54;;;;;;;7.60;4.93;;;;;;;9.33;77.79;94246.81;5125178;28;20023;-93
2023/05/05 02:38:26;;;;;;;9.18;4.88;;;;;;;9.37;77.91;94253.09;5124917;28;20034;-93
2023/05/05 02:40:55;;;;;;;9.63;4.45;;;;;;;9.36;77.61;94248.06;5124717;28;20027;-90
2023/05/05 02:43:24;;;;;;;8.35;4.45;;;;;;;9.39;77.83;94250.94;5106735;28;20023;-88
2023/05/05 02:45:49;;;;;;;9.57;4.63;;;;;;;9.40;77.73;94247.22;5124291;28;20099;-88
2023/05/05 02:48:15;;;;;;;9.27;4.15;;;;;;;9.48;77.41;94251.03;5124227;28;20034;-89
2023/05/05 02:50:40;;;;;;;6.40;4.13;;;;;;;9.53;77.14;94247.50;5105957;28;20062;-89
2023/05/05 02:53:06;;;;;;;10.93;4.00;;;;;;;9.54;76.91;94249.06;5124421;28;20043;-89
2023/05/05 02:56:13;;;;;;;5.68;3.67;;;;;;;9.61;76.62;94239.59;5123852;28;20022;-89
2023/05/05 02:59:05;;;;;;;6.40;3.92;;;;;;;9.66;76.82;94253.91;5105442;28;20024;-89
2023/05/05 03:01:47;;;;;;;9.00;4.10;;;;;;;9.68;76.33;94244.53;5114393;28;20360;-89
2023/05/05 03:04:28;;;;;;;9.00;3.75;;;;;;;9.68;76.12;94244.53;5123923;28;20023;-89
2023/05/05 03:06:57;;;;;;;7.22;3.80;;;;;;;9.75;76.19;94246.78;5105765;28;20057;-89
2023/05/05 03:09:36;;;;;;;6.90;4.00;;;;;;;9.79;75.67;94251.22;5124145;28;20028;-89
2023/05/05 03:12:08;;;;;;;8.52;4.07;;;;;;;9.86;75.04;94244.72;5124312;28;20230;-90
2023/05/05 03:14:42;;;;;;;5.30;3.00;;;;;;;9.88;74.84;94239.88;5105843;28;20068;-90
2023/05/05 03:17:11;;;;;;;4.05;2.35;;;;;;;9.90;72.70;94246.47;5123829;28;20277;-90
2023/05/05 03:19:41;;;;;;;4.85;2.65;;;;;;;9.92;72.88;94246.97;5123809;28;20060;-89
2023/05/05 03:22:07;;;;;;;4.43;2.25;;;;;;;9.92;72.08;94235.53;5123844;28;20340;-89
2023/05/05 03:24:33;;;;;;;4.93;2.50;;;;;;;9.95;72.51;94249.03;5105506;28;20024;-89
2023/05/05 03:26:58;;;;;;;5.47;1.92;;;;;;;9.97;72.12;94246.06;5123233;28;20050;-87
2023/05/05 03:29:24;;;;;;;3.15;1.92;;;;;;;9.98;71.23;94247.63;5105074;28;20318;-88
2023/05/05 03:31:49;;;;;;;3.17;1.83;;;;;;;10.01;69.75;94244.38;5123389;28;20034;-88
2023/05/05 03:34:15;;;;;;;2.40;1.55;;;;;;;9.99;69.57;94249.19;5123302;28;20020;-88
2023/05/05 03:36:41;;;;;;;4.20;2.53;;;;;;;10.00;69.60;94245.47;5123174;28;20020;-87
2023/05/05 03:39:07;;;;;;;4.50;2.75;;;;;;;10.09;69.63;94242.88;5105273;28;20300;-88
2023/05/05 03:41:32;;;;;;;3.25;2.08;;;;;;;10.12;69.86;94243.06;5123276;28;20049;-88
2023/05/05 03:43:58;;;;;;;3.08;1.80;;;;;;;10.15;69.83;94241.66;5123831;28;20027;-90
2023/05/05 03:46:24;;;;;;;3.78;2.17;;;;;;;10.15;69.64;94242.44;5123388;28;20090;-89
2023/05/05 03:48:50;;;;;;;9.75;3.42;;;;;;;10.17;70.01;94240.28;5123395;28;20043;-89
2023/05/05 03:51:16;;;;;;;7.18;3.25;;;;;;;10.18;70.14;94236.53;5123411;28;20020;-89
2023/05/05 03:53:41;;;;;;;4.47;2.58;;;;;;;10.19;69.98;94243.44;5124083;28;20078;-87
2023/05/05 03:56:07;;;;;;;5.75;2.92;;;;;;;10.21;69.95;94243.13;5123615;28;20177;-88
2023/05/05 03:58:32;;;;;;;4.97;2.30;;;;;;;10.23;70.21;94239.06;5122953;28;20024;-87
2023/05/05 04:00:58;;;;;;;3.63;2.33;;;;;;;10.26;70.50;94245.69;5124072;28;20055;-90
2023/05/05 04:03:23;;;;;;;3.33;2.13;;;;;;;10.30;70.45;94243.22;5104821;28;20043;-86
2023/05/05 04:05:49;;;;;;;3.65;2.08;;;;;;;10.33;70.00;94243.41;5122925;28;20034;-88
2023/05/05 04:08:14;;;;;;;4.60;2.50;;;;;;;10.38;70.06;94240.66;5108312;28;20094;-87
2023/05/05 04:10:39;;;;;;;3.63;2.13;;;;;;;10.44;69.43;94238.63;5126704;28;20023;-87
2023/05/05 04:13:05;;;;;;;4.22;2.47;;;;;;;10.50;68.95;94249.97;5108158;28;20023;-87
2023/05/05 04:15:31;;;;;;;7.00;2.15;;;;;;;10.48;68.85;94255.59;5126386;28;20060;-87
2023/05/05 04:17:56;;;;;;;5.45;2.63;;;;;;;10.53;68.95;94252.81;5126320;28;20065;-87
2023/05/05 04:20:21;;;;;;;5.60;3.38;;;;;;;10.56;69.79;94254.91;5108358;28;20318;-87
2023/05/05 04:22:47;;;;;;;8.82;3.97;;;;;;;10.58;70.19;94254.56;5126096;28;20051;-91
2023/05/05 04:25:12;;;;;;;9.20;3.72;;;;;;;10.62;70.23;94256.34;5126077;28;20031;-87
2023/05/05 04:27:38;;;;;;;14.48;4.93;;;;;;;10.55;71.55;94265.84;5125985;28;20090;-86
2023/05/05 04:30:04;;;;;;;13.93;4.85;;;;;;;10.49;72.47;94259.84;5125837;28;20060;-87
2023/05/05 04:32:30;;;;;;;19.73;6.47;;;;;;;10.41;73.53;94271.22;5109103;28;20077;-88
2023/05/05 04:34:55;;;;;;;20.30;7.20;;;;;;;10.37;74.12;94275.59;5126751;28;20207;-88
2023/05/05 04:37:20;;;;;;;16.55;6.28;;;;;;;10.22;74.23;94269.47;5126767;28;20102;-86
2023/05/05 04:39:48;;;;;;;11.25;5.82;;;;;;;10.08;74.06;94279.38;5107259;28;20024;-87
2023/05/05 04:42:14;;;;;;;13.70;5.57;;;;;;;9.95;73.59;94283.66;5107302;28;20221;-85
2023/05/05 04:44:39;;;;;;;12.07;5.55;;;;;;;9.84;73.81;94284.94;5125988;28;20039;-85
2023/05/05 04:47:05;;;;;;;13.90;6.35;;;;;;;9.80;74.07;94289.28;5125893;28;20030;-87
2023/05/05 04:49:30;;;;;;;20.08;7.57;;;;;;;9.71;74.38;94283.88;5125979;28;20313;-86
2023/05/05 04:51:56;;;;;;;10.65;6.05;;;;;;;9.66;74.89;94286.63;5125682;28;20031;-87
2023/05/05 04:54:22;;;;;;;15.63;6.57;;;;;;;9.66;75.36;94291.16;5125769;28;20024;-80
2023/05/05 04:56:47;;;;;;;16.35;5.50;;;;;;;9.68;75.75;94288.97;5125335;28;20306;-81
2023/05/05 04:59:13;;;;;;;8.88;5.38;;;;;;;9.75;74.94;94292.03;5125320;28;20032;-81
2023/05/05 05:01:39;;;;;;;12.75;6.55;;;;;;;9.82;74.84;94293.22;5125057;28;20042;-83
2023/05/05 05:04:05;;;;;;;7.95;4.88;;;;;;;9.92;74.91;94291.44;5125668;28;20027;-80
2023/05/05 05:06:31;;;;;;;8.45;5.10;;;;;;;9.90;73.98;94288.28;5125297;28;20095;-81
2023/05/05 05:08:56;;;;;;;12.13;5.13;;;;;;;9.96;74.27;94289.75;5107348;28;20026;-84
2023/05/05 05:11:22;;;;;;;9.23;4.75;;;;;;;10.06;74.75;94296.75;5125147;28;20049;-79
2023/05/05 05:13:47;;;;;;;10.82;6.03;;;;;;;10.17;75.06;94290.88;5125240;28;20252;-81
2023/05/05 05:16:13;;;;;;;6.15;4.13;;;;;;;10.30;73.42;94296.50;5126230;28;20141;-89
2023/05/05 05:18:38;;;;;;;11.10;4.45;;;;;;;10.41;72.91;94297.88;5128199;28;20015;-88
2023/05/05 05:21:04;;;;;;;10.00;4.00;;;;;;;10.56;72.92;94291.41;5108091;28;20098;-90
2023/05/05 05:23:29;;;;;;;9.00;3.80;;;;;;;10.72;73.04;94291.84;5125426;28;20027;-79
2023/05/05 05:25:55;;;;;;;6.03;3.30;;;;;;;10.84;71.08;94294.75;5124784;28;20072;-78
2023/05/05 05:28:21;;;;;;;6.68;2.80;;;;;;;10.95;70.42;94305.94;5124907;28;20315;-80
2023/05/05 05:30:46;;;;;;;5.50;2.50;;;;;;;11.06;69.60;94306.50;5125293;28;20098;-81
2023/05/05 05:33:12;;;;;;;10.13;3.80;;;;;;;11.17;68.67;94307.81;5125099;28;20077;-80
2023/05/05 05:35:38;;;;;;;7.13;3.55;;;;;;;11.29;68.88;94302.69;5124851;28;20213;-81
2023/05/05 05:38:04;;;;;;;3.40;1.75;;;;;;;11.39;67.38;94310.44;5106204;28;20027;-81
2023/05/05 05:40:30;;;;;;;3.53;1.70;;;;;;;11.50;66.20;94299.50;5124503;28;20255;-80
2023/05/05 05:42:55;;;;;;;7.13;1.77;;;;;;;11.48;65.54;94307.84;5125204;28;20095;-80
2023/05/05 05:45:21;;;;;;;4.35;2.03;;;;;;;11.56;65.82;94299.09;5124179;28;20329;-80
2023/05/05 05:47:46;;;;;;;5.20;2.20;;;;;;;11.71;66.36;94295.19;5106230;28;20068;-81
2023/05/05 05:50:12;;;;;;;11.20;1.90;;;;;;;11.81;66.34;94294.91;5106354;28;20019;-81
2023/05/05 05:52:37;;;;;;;6.88;2.10;;;;;;;11.89;65.13;94296.06;5124560;28;20329;-81
2023/05/05 05:55:03;;;;;;;4.72;1.73;;;;;;;11.95;64.92;94299.41;5124700;28;20015;-82
2023/05/05 05:57:28;;;;;;;4.50;1.63;;;;;;;12.01;64.58;94298.16;5124582;28;20028;-84
2023/05/05 05:59:54;;;;;;;5.32;1.70;;;;;;;12.04;63.56;94313.56;5124400;28;20015;-79
2023/05/05 06:02:19;;;;;;;2.72;1.70;;;;;;;12.08;63.32;94308.38;5124318;28;20237;-81
2023/05/05 06:04:45;;;;;;;4.90;2.35;;;;;;;12.10;62.93;94308.84;5123769;28;20022;-82
2023/05/05 06:07:11;;;;;;;5.82;1.98;;;;;;;12.16;62.92;94310.28;5123763;28;20031;-83
2023/05/05 06:09:37;;;;;;;8.02;2.83;;;;;;;12.17;62.99;94312.66;5124725;28;20035;-87
2023/05/05 06:12:02;;;;;;;9.50;2.13;;;;;;;12.31;62.85;94303.69;5123386;28;20024;-88
2023/05/05 06:14:28;;;;;;;4.03;2.38;;;;;;;12.51;63.38;94313.00;5122866;28;20019;-83
2023/05/05 06:16:54;;;;;;;3.50;2.08;;;;;;;12.65;62.20;94310.97;5124411;28;20209;-86
2023/05/05 06:19:20;;;;;;;6.43;2.00;;;;;;;12.80;60.89;94307.81;5106407;28;20019;-83
2023/05/05 06:21:45;;;;;;;4.53;1.67;;;;;;;12.71;60.11;94309.69;5124095;28;20042;-81
2023/05/05 06:24:11;;;;;;;3.40;2.17;;;;;;;12.72;60.44;94319.31;5123598;28;20039;-81
2023/05/05 06:26:37;;;;;;;5.47;2.63;;;;;;;12.67;60.55;94318.69;5122518;28;20036;-81
2023/05/05 06:29:02;;;;;;;8.23;2.30;;;;;;;12.58;60.69;94313.34;5121852;28;20068;-81
2023/05/05 06:31:27;;;;;;;5.53;2.63;;;;;;;12.54;61.03;94312.38;5123167;28;20064;-81
2023/05/05 06:33:53;;;;;;;3.88;2.08;;;;;;;12.56;61.31;94315.53;5123003;28;20012;-80
2023/05/05 06:36:18;;;;;;;4.13;2.03;;;;;;;12.62;61.43;94312.38;5105159;28;20322;-81
2023/05/05 06:38:44;;;;;;;8.23;2.58;;;;;;;12.60;61.35;94314.59;5123477;28;20019;-81
2023/05/05 06:41:10;;;;;;;11.88;3.13;;;;;;;12.60;61.24;94319.94;5124109;28;20054;-81
2023/05/05 06:43:35;;;;;;;4.03;2.22;;;;;;;12.57;61.52;94323.22;5123826;28;20020;-81
2023/05/05 06:46:01;;;;;;;6.55;1.95;;;;;;;12.53;61.46;94318.81;5123421;28;20035;-81
2023/05/05 06:48:26;;;;;;;8.20;2.65;;;;;;;12.50;61.98;94317.56;5123990;28;20019;-81
2023/05/05 06:50:52;;;;;;;4.43;2.10;;;;;;;12.47;61.37;94314.72;5123731;28;20043;-81
2023/05/05 06:53:17;;;;;;;8.65;2.33;;;;;;;12.49;61.67;94312.53;5123696;28;20026;-81
2023/05/05 06:55:45;;;;;;;6.20;2.40;;;;;;;12.58;61.72;94316.00;5123218;28;20286;-81
2023/05/05 06:58:10;;;;;;;5.13;2.13;;;;;;;12.72;60.84;94310.47;5122975;28;20043;-80
2023/05/05 07:00:37;;;;;;;9.48;2.22;;;;;;;12.83;60.52;94309.84;5123456;28;20363;-82
2023/05/05 07:03:03;;;;;;;5.72;2.38;;;;;;;12.90;60.71;94311.25;5123627;28;20050;-81
2023/05/05 07:05:28;;;;;;;5.50;1.88;;;;;;;13.04;61.05;94311.88;5123459;28;20365;-82
2023/05/05 07:07:55;;;;;;;11.73;1.95;;;;;;;13.27;59.99;94320.50;5105035;28;20039;-82
2023/05/05 07:10:22;;;;;;;7.90;2.20;;;;;;;13.50;60.03;94306.94;5123676;28;20016;-82
2023/05/05 07:12:48;;;;;;;5.00;2.17;;;;;;;13.66;59.26;94297.28;5123657;28;20019;-82
2023/05/05 07:15:13;;;;;;;4.15;1.92;;;;;;;13.88;59.32;94306.94;5123111;28;20195;-82
2023/05/05 07:17:39;;;;;;;10.52;2.67;;;;;;;14.08;58.86;94308.09;5123194;28;20027;-81
2023/05/05 07:20:07;;;;;;;5.32;2.22;;;;;;;14.30;58.29;94306.25;5123467;28;20034;-82
2023/05/05 07:22:32;;;;;;;4.43;2.20;;;;;;;14.54;57.09;94301.03;5123134;28;20111;-82
2023/05/05 07:24:58;;;;;;;7.35;1.80;;;;;;;14.75;56.25;94302.94;5123607;28;20023;-82
2023/05/05 07:27:24;;;;;;;3.83;1.77;;;;;;;14.91;54.55;94293.19;5123391;28;20027;-82
2023/05/05 07:29:50;;;;;;;4.93;1.85;;;;;;;14.97;54.18;94289.19;5123329;28;20020;-82
2023/05/05 07:32:15;;;;;;;3.17;1.65;;;;;;;14.99;53.65;94292.31;5123386;28;20026;-82
2023/05/05 07:34:41;;;;;;;5.00;2.30;;;;;;;15.01;53.14;94295.47;5122752;28;20050;-83
2023/05/05 07:37:06;;;;;;;7.40;2.75;;;;;;;14.92;53.29;94297.44;5123518;28;20039;-83
2023/05/05 07:39:32;;;;;;;5.00;1.67;;;;;;;15.02;54.79;94298.91;5123438;28;20048;-83
2023/05/05 07:41:58;;;;;;;3.53;2.05;;;;;;;15.12;54.13;94295.03;5124651;28;20015;-82
2023/05/05 07:44:23;;;;;;;4.28;2.40;;;;;;;15.11;53.21;94290.81;5126936;28;20020;-82
2023/05/05 07:46:48;;;;;;;5.65;1.90;;;;;;;15.17;53.37;94294.84;5126863;28;20073;-83
2023/05/05 07:49:14;;;;;;;8.65;2.22;;;;;;;15.36;53.58;94292.44;5127315;28;20030;-82
2023/05/05 07:51:39;;;;;;;7.70;2.45;;;;;;;15.54;53.44;94297.63;5127048;28;20031;-82
2023/05/05 07:54:05;;;;;;;11.27;2.70;;;;;;;15.57;52.18;94291.56;5108689;28;20313;-82
2023/05/05 07:56:30;;;;;;;10.40;2.78;;;;;;;15.55;51.46;94299.19;5127214;28;20027;-81
2023/05/05 07:58:56;;;;;;;5.93;2.58;;;;;;;15.50;51.22;94304.78;5127233;28;20091;-82
2023/05/05 08:01:22;;;;;;;5.55;2.90;;;;;;;15.32;51.88;94310.31;5126732;28;20206;-80
2023/05/05 08:03:47;;;;;;;5.15;2.85;;;;;;;15.20;52.12;94297.66;5126430;28;20231;-81
2023/05/05 08:06:20;;;;;;;5.32;2.80;;;;;;;15.14;52.93;94295.50;5126584;28;20043;-82
2023/05/05 08:08:49;;;;;;;5.85;2.25;;;;;;;15.17;53.07;94300.22;5126614;28;20091;-82
2023/05/05 08:11:15;;;;;;;5.00;2.72;;;;;;;15.15;52.06;94305.13;5126673;28;20058;-82
2023/05/05 08:13:44;;;;;;;4.72;2.28;;;;;;;14.98;51.65;94298.81;5126412;28;20222;-81
2023/05/05 08:16:10;;;;;;;8.65;2.50;;;;;;;14.78;52.57;94305.00;5126141;28;20015;-81
2023/05/05 08:18:37;;;;;;;5.75;2.13;;;;;;;14.58;52.21;94301.97;5126755;28;20202;-81
2023/05/05 08:21:04;;;;;;;4.72;2.13;;;;;;;14.44;52.81;94296.06;5108017;28;20024;-81
2023/05/05 08:23:29;;;;;;;5.95;2.90;;;;;;;14.38;53.51;94298.13;5125720;28;20027;-81
2023/05/05 08:25:55;;;;;;;4.97;2.47;;;;;;;14.30;54.23;94285.56;5126168;28;20267;-81
2023/05/05 08:28:21;;;;;;;7.55;2.75;;;;;;;14.27;54.65;94296.16;5125611;28;20022;-81
2023/05/05 08:30:48;;;;;;;3.53;1.98;;;;;;;14.14;54.89;94282.66;5125864;28;20378;-81
2023/05/05 08:33:14;;;;;;;6.93;3.30;;;;;;;14.15;55.17;94289.63;5125923;28;20087;-81
2023/05/05 08:35:40;;;;;;;7.30;2.78;;;;;;;14.07;54.96;94276.28;5125414;28;20064;-82
2023/05/05 08:38:06;;;;;;;6.85;2.20;;;;;;;14.07;55.24;94277.06;5125395;28;20020;-81
2023/05/05 08:40:35;;;;;;;6.03;2.70;;;;;;;14.22;55.44;94281.06;5107496;28;20020;-81
2023/05/05 08:43:01;;;;;;;6.47;2.35;;;;;;;14.40;55.26;94279.81;5125643;28;20136;-81
2023/05/05 08:45:28;;;;;;;5.70;2.97;;;;;;;14.60;55.15;94272.16;5125780;28;20313;-81
2023/05/05 08:47:59;;;;;;;7.68;2.85;;;;;;;14.82;54.63;94279.84;5125550;28;20039;-81
2023/05/05 08:50:26;;;;;;;6.22;2.47;;;;;;;14.91;52.33;94273.63;5125451;28;20086;-81
2023/05/05 08:53:08;;;;;;;6.97;2.67;;;;;;;15.01;53.13;94270.53;5124674;28;20098;-81
2023/05/05 08:55:37;;;;;;;3.45;1.70;;;;;;;15.02;52.29;94274.75;5125383;28;20038;-81
2023/05/05 08:58:03;;;;;;;14.23;2.53;;;;;;;15.20;52.46;94267.31;5125566;28;20031;-81
2023/05/05 09:00:29;;;;;;;3.35;2.17;;;;;;;15.29;50.79;94272.63;5125232;28;20039;-82
2023/05/05 09:02:56;;;;;;;5.28;2.10;;;;;;;15.33;50.82;94271.63;5125096;28;20078;-81
2023/05/05 09:05:22;;;;;;;9.95;2.53;;;;;;;15.40;50.69;94279.91;5125110;28;20036;-81
2023/05/05 09:07:48;;;;;;;3.45;2.35;;;;;;;15.54;49.83;94262.69;5106829;28;20229;-82
2023/05/05 09:10:14;;;;;;;4.20;2.35;;;;;;;15.76;49.99;94264.97;5125125;28;20033;-82
2023/05/05 09:12:40;;;;;;;4.40;2.40;;;;;;;16.11;49.81;94266.44;5124852;28;20042;-82
2023/05/05 09:15:10;;;;;;;5.97;3.65;;;;;;;16.48;48.89;94267.13;5125014;28;20019;-81
2023/05/05 09:17:35;;;;;;;4.70;2.20;;;;;;;16.72;46.77;94266.28;5124844;28;20302;-82
2023/05/05 09:20:06;;;;;;;6.47;1.65;;;;;;;16.84;44.71;94258.19;5124885;28;20030;-81
2023/05/05 09:22:36;;;;;;;4.43;2.00;;;;;;;17.00;45.91;94254.78;5106744;28;20106;-82
2023/05/05 09:25:07;;;;;;;6.57;2.22;;;;;;;17.04;48.17;94253.75;5106583;28;20098;-81
2023/05/05 09:27:37;;;;;;;3.75;2.05;;;;;;;17.13;48.27;94264.34;5124676;28;20083;-82
2023/05/05 09:30:04;;;;;;;8.52;2.45;;;;;;;17.11;48.70;94263.13;5124753;28;20031;-82
2023/05/05 09:32:42;;;;;;;6.03;2.35;;;;;;;16.80;48.78;94264.59;5124560;28;20070;-82
2023/05/05 09:35:08;;;;;;;12.60;2.13;;;;;;;16.70;49.01;94260.47;5124473;28;20095;-82
2023/05/05 09:37:33;;;;;;;7.68;1.90;;;;;;;16.63;48.14;94262.97;5124543;28;20016;-81
2023/05/05 09:40:00;;;;;;;4.18;2.00;;;;;;;16.63;47.75;94273.75;5124730;28;20022;-82
2023/05/05 09:42:26;;;;;;;20.27;3.08;;;;;;;16.68;47.78;94261.94;5124332;28;20038;-81
2023/05/05 09:44:51;;;;;;;3.53;2.00;;;;;;;16.65;48.17;94261.50;5124590;28;20214;-82
2023/05/05 09:47:17;;;;;;;8.10;2.47;;;;;;;16.76;47.30;94261.03;5124036;28;20024;-81
2023/05/05 09:49:43;;;;;;;6.65;2.47;;;;;;;16.74;46.77;94261.34;5124460;28;20042;-81
2023/05/05 09:52:18;;;;;;;4.25;1.80;;;;;;;16.60;48.16;94248.28;5124185;28;20321;-82
2023/05/05 09:54:44;;;;;;;3.38;2.20;;;;;;;16.63;48.06;94254.91;5124378;28;20051;-81
2023/05/05 09:57:25;;;;;;;7.25;2.42;;;;;;;16.74;47.86;94249.81;5124086;28;20031;-81
2023/05/05 09:59:58;;;;;;;17.65;2.30;;;;;;;16.78;49.10;94256.06;5124222;28;20043;-81
2023/05/05 10:02:37;;;;;;;6.38;2.22;;;;;;;16.65;50.23;94253.44;5124190;28;20085;-81
2023/05/05 10:05:16;;;;;;;5.72;2.67;;;;;;;16.43;49.78;94253.94;5123391;28;20110;-81
2023/05/05 10:07:43;;;;;;;4.15;2.30;;;;;;;16.13;50.26;94248.81;5124126;28;20023;-81
2023/05/05 10:10:12;;;;;;;9.85;2.42;;;;;;;15.95;49.77;94252.88;5123981;28;20051;-81
2023/05/05 10:12:38;;;;;;;7.25;3.55;;;;;;;15.88;50.38;94248.06;5123720;28;20027;-81
2023/05/05 10:15:06;;;;;;;5.25;2.45;;;;;;;15.92;50.20;94245.50;5105705;28;20027;-81
2023/05/05 10:17:35;;;;;;;9.20;2.10;;;;;;;15.91;48.89;94235.84;5105435;28;20086;-81
2023/05/05 10:20:05;;;;;;;7.55;3.03;;;;;;;16.01;50.16;94241.56;5123857;28;20027;-81
2023/05/05 10:22:33;;;;;;;4.60;1.95;;;;;;;16.06;49.41;94232.50;5123974;28;20027;-81
2023/05/05 10:25:12;;;;;;;7.97;1.88;;;;;;;16.30;50.06;94241.63;5123842;28;20030;-81
2023/05/05 10:27:49;;;;;;;3.70;2.03;;;;;;;16.82;49.71;94238.16;5123837;28;20027;-81
2023/05/05 10:30:31;;;;;;;5.03;2.55;;;;;;;17.33;47.18;94232.94;5123587;28;20023;-81
2023/05/05 10:33:13;;;;;;;10.63;1.92;;;;;;;17.66;44.88;94229.13;5123667;28;20061;-82
2023/05/05 10:35:40;;;;;;;;;;;;;;;17.77;44.66;94226.69;5105686;28;20019;-81
2023/05/05 10:38:11;;;;;;;7.43;2.30;;;;;;;17.86;43.56;94221.16;5123282;28;19939;-82
2023/05/05 10:40:42;;;;;;;6.72;1.90;;;;;;;17.88;42.66;94224.28;5123504;28;20086;-82
2023/05/05 10:43:11;;;;;;;4.55;2.40;;;;;;;17.89;42.94;94228.53;5123654;28;20051;-82
2023/05/05 10:45:38;;;;;;;7.82;2.20;;;;;;;17.97;42.76;94222.16;5123163;28;20103;-82
2023/05/05 10:48:08;;;;;;;6.93;2.22;;;;;;;17.97;43.75;94230.25;5123516;28;20030;-82
2023/05/05 10:50:43;;;;;;;4.93;1.90;;;;;;;17.94;43.82;94223.66;5123271;28;20023;-82
2023/05/05 10:53:21;;;;;;;6.75;2.38;;;;;;;17.86;44.28;94223.84;5123334;28;20030;-81
2023/05/05 10:55:57;;;;;;;4.50;2.25;;;;;;;17.68;44.37;94223.38;5123165;28;20011;-81
2023/05/05 10:58:38;;;;;;;6.10;2.50;;;;;;;17.69;44.58;94220.34;5123163;28;20182;-82
2023/05/05 11:01:06;;;;;;;9.00;2.72;;;;;;;17.62;45.88;94218.25;5123319;28;20345;-82
2023/05/05 11:03:32;;;;;;;6.50;2.38;;;;;;;17.62;45.88;94234.41;5122744;28;20036;-81
2023/05/05 11:06:04;;;;;;;6.03;2.60;;;;;;;17.54;45.77;94226.50;5123091;28;20024;-81
2023/05/05 11:08:38;;;;;;;4.97;2.08;;;;;;;17.38;44.74;94229.19;5122489;28;20108;-82
2023/05/05 11:11:04;;;;;;;4.25;2.10;;;;;;;17.24;45.69;94222.34;5123235;28;20248;-81
2023/05/05 11:13:30;;;;;;;4.35;2.30;;;;;;;17.39;46.33;94223.47;5123131;28;20065;-81
2023/05/05 11:15:59;;;;;;;3.78;1.98;;;;;;;17.55;45.66;94223.47;5124744;28;20088;-81
2023/05/05 11:18:37;;;;;;;4.00;2.28;;;;;;;17.62;44.74;94222.88;5109307;28;20043;-81
2023/05/05 11:21:15;;;;;;;12.40;1.88;;;;;;;17.67;44.49;94213.72;5127284;28;20246;-82
2023/05/05 11:23:49;;;;;;;3.47;2.08;;;;;;;17.60;44.01;94208.94;5127318;28;20019;-81
2023/05/05 11:26:15;;;;;;;6.10;2.15;;;;;;;17.45;46.26;94219.38;5125798;28;20043;-81
2023/05/05 11:28:58;;;;;;;8.15;1.63;;;;;;;17.43;46.18;94216.25;5126706;28;20023;-81
2023/05/05 11:31:24;;;;;;;4.53;2.05;;;;;;;17.50;46.10;94212.16;5127095;28;20213;-81
2023/05/05 11:33:50;;;;;;;8.70;1.85;;;;;;;17.73;45.83;94202.34;5127149;28;20028;-81
2023/05/05 11:36:18;;;;;;;2.78;1.85;;;;;;;17.88;45.65;94208.09;5126991;28;20076;-81
2023/05/05 11:39:02;;;;;;;4.47;2.05;;;;;;;17.96;45.51;94204.44;5126849;28;20231;-81
2023/05/05 11:41:30;;;;;;;3.58;1.88;;;;;;;17.98;45.03;94211.03;5126960;28;20032;-82